Terminal Aerodrome Forecast
Issued by NWS

Home | Current Version | Previous Version | Text Only | Print | Product List | Glossary On
Versions: 1 2 3 4 5 6 7 8 9 10 11 12 13 14 15
000
FTUS45 KABQ 290000 AAA
TAFTCC
TAF AMD
KTCC 290058Z 2901/2924 02012KT P6SM FEW120
      TEMPO 2901/2902 02018G26KT
     FM290400 02007KT P6SM SKC
     FM291700 17009KT P6SM SKC=

USA.gov is the U.S. government's official web portal to all federal, state and local government web resources and services.